This is the latest recevied weather packets stored in our database for station/object IT9RID. If no packets are shown the sender has not sent any weather packets the latest 10 day(s).
| Time | Temp. | Humidity | Pressure | Rain* | Wind** | Luminosity | Snow |
|---|---|---|---|---|---|---|---|
| 1787849238 | 32.78° C | 60% | 1016.1 hPa | 0 mm | - | - | - |
| 1787848638 | 33.89° C | 59% | 1016.2 hPa | 0 mm | - | - | - |
| 1787848038 | 33.33° C | 60% | 1016.1 hPa | 0 mm | - | - | - |
| 1787847438 | 33.33° C | 61% | 1016.1 hPa | 0 mm | - | - | - |
| 1787846841 | 33.33° C | 61% | 1016.1 hPa | 0 mm | - | - | - |
| 1787846238 | 33.89° C | 62% | 1016 hPa | 0 mm | - | - | - |
| 1787845637 | 34.44° C | 58% | 1016 hPa | 0 mm | - | - | - |
| 1787845038 | 35° C | 49% | 1015.9 hPa | 0 mm | - | - | - |
| 1787844439 | 36.11° C | 42% | 1016 hPa | 0 mm | - | - | - |
| 1787843837 | 36.11° C | 40% | 1016 hPa | 0 mm | - | - | - |
| 1787843237 | 35.56° C | 39% | 1015.9 hPa | 0 mm | - | - | - |
| 1787842637 | 35° C | 41% | 1016 hPa | 0 mm | - | - | - |
| 1787842037 | 34.44° C | 50% | 1016.1 hPa | 0 mm | - | - | - |
| 1787841436 | 33.89° C | 53% | 1016.4 hPa | 0 mm | - | - | - |
| 1787840236 | 35° C | 45% | 1016.4 hPa | 0 mm | - | - | - |
| 1787839636 | 35° C | 44% | 1016.1 hPa | 0 mm | - | - | - |
| 1787839036 | 36.11° C | 44% | 1016 hPa | 0 mm | - | - | - |
| 1787838436 | 37.22° C | 37% | 1015.7 hPa | 0 mm | - | - | - |
| 1787837836 | 37.22° C | 36% | 1015.5 hPa | 0 mm | - | - | - |
| 1787837235 | 37.22° C | 35% | 1015.6 hPa | 0 mm | - | - | - |
| 1787836635 | 37.22° C | 34% | 1015.6 hPa | 0 mm | - | - | - |
| 1787836035 | 37.22° C | 34% | 1015.6 hPa | 0 mm | - | - | - |
| 1787835435 | 37.22° C | 35% | 1015.6 hPa | 0 mm | - | - | - |
| 1787834835 | 37.78° C | 34% | 1015.5 hPa | 0 mm | - | - | - |
| 1787834235 | 37.22° C | 36% | 1015.6 hPa | 0 mm | - | - | - |
* Rain latest hour (hover to see other rain measurements)
** Current wind speed in m/s (hover to see current wind gust speed)